Spanish Ranch, California
Current Conditions -  °F | °C
As of 10:52 PM on Monday 20 Oct 2014 (Local Time) from KBLU Reporting Station
Overcast Overcast  
Wind Chill: 35°   Ceiling: 400
Heat Index: 40°   Visibility: 10mi
Dew Point: 37°   Wind: 7mph
Humidity: 89%   Direction: 210°SSW
Pressure: 30.07"   Gusts: NA
Location:  39.939°N, 120.918°W
Report Text: KBLU 210552Z AUTO 21006KT 10SM BKN004 BKN024 OVC031 04/03 A3007 RMK AO2 SLP148 60066 T00440028 10100 20039 51014
Loading
Personal Weather Stations






























Interactive Weather Map
Tropical Storm Tracking
New forecast layout! Learn more

10-Day Weather Forecast

Advertisements
Track Severe Weather on mobile